Time;durP1;ratioP1;P1;durP2;ratioP2;P2;SDS_P1;SDS_P2;PMS_P1;PMS_P2;Temp;Humidity;BMP_temperature;BMP_pressure;BME280_temperature;BME280_humidity;BME280_pressure;Samples;Min_cycle;Max_cycle;Signal;HPM_P1;HPM_P2
2023/12/21 00:41:34;;;;;;;90.05;45.65;;;5.80;99.90;;;;;;6145092;22;21074;31
2023/12/21 00:44:01;;;;;;;98.65;47.63;;;5.80;99.90;;;;;;4958773;28;20055;-86
2023/12/21 00:46:27;;;;;;;102.47;48.35;;;5.70;99.90;;;;;;4948379;29;20058;-85
2023/12/21 00:48:53;;;;;;;94.90;47.53;;;5.70;99.90;;;;;;4945096;28;20031;-86
2023/12/21 00:51:20;;;;;;;96.38;45.40;;;5.80;99.90;;;;;;4973207;28;20031;-86
2023/12/21 00:53:46;;;;;;;93.65;44.95;;;5.80;99.90;;;;;;4954623;28;20053;-88
2023/12/21 00:56:13;;;;;;;83.60;39.88;;;5.90;99.90;;;;;;4964322;28;20019;-87
2023/12/21 00:58:39;;;;;;;70.50;36.70;;;6.00;99.90;;;;;;4965433;28;20035;-87
2023/12/21 01:01:06;;;;;;;70.35;31.25;;;6.20;99.90;;;;;;4959050;28;20023;-87
2023/12/21 01:03:32;;;;;;;62.25;30.27;;;6.30;99.90;;;;;;4942364;28;20387;-91
2023/12/21 01:05:58;;;;;;;64.70;31.35;;;6.40;99.90;;;;;;4938581;29;20039;-90
2023/12/21 01:08:25;;;;;;;73.88;36.95;;;6.40;99.90;;;;;;4923712;28;20034;-89
2023/12/21 01:10:51;;;;;;;74.32;37.60;;;6.40;99.90;;;;;;4952103;29;20031;-90
2023/12/21 01:13:17;;;;;;;77.45;38.78;;;6.40;99.90;;;;;;4923610;29;20047;-89
2023/12/21 01:15:43;;;;;;;74.07;39.08;;;6.30;99.90;;;;;;4942174;29;20027;-90
2023/12/21 01:18:10;;;;;;;67.97;36.20;;;6.20;99.90;;;;;;4942440;29;20031;-89
2023/12/21 01:20:36;;;;;;;68.85;36.53;;;6.20;99.90;;;;;;4955068;28;20083;-90
2023/12/21 01:23:03;;;;;;;63.83;33.85;;;6.10;99.90;;;;;;4949288;28;20035;-91
2023/12/21 01:25:29;;;;;;;62.08;33.47;;;6.10;99.90;;;;;;4940591;28;20031;-88
2023/12/21 01:27:55;;;;;;;64.20;32.22;;;6.20;99.90;;;;;;4940758;28;20038;-90
2023/12/21 01:30:24;;;;;;;68.30;32.90;;;6.20;99.90;;;;;;4941901;28;20035;-90
2023/12/21 01:32:51;;;;;;;62.85;32.45;;;6.10;99.90;;;;;;4957740;28;20124;-90
2023/12/21 01:35:17;;;;;;;58.38;32.78;;;6.10;99.90;;;;;;4957467;28;20472;-89
2023/12/21 01:37:43;;;;;;;56.72;30.95;;;6.10;99.90;;;;;;4957807;28;20118;-90
2023/12/21 01:40:10;;;;;;;58.65;31.77;;;6.00;99.90;;;;;;4941559;28;20388;-90
2023/12/21 01:42:37;;;;;;;53.55;30.17;;;5.90;99.90;;;;;;4957412;28;20057;-91
2023/12/21 01:45:03;;;;;;;52.42;29.30;;;5.80;99.90;;;;;;4958068;28;20118;-90
2023/12/21 01:47:30;;;;;;;51.05;28.20;;;5.80;99.90;;;;;;4954545;29;20035;-89
2023/12/21 01:49:57;;;;;;;46.85;26.83;;;5.70;99.90;;;;;;4922895;29;20100;-90
2023/12/21 01:52:23;;;;;;;55.22;28.90;;;5.70;99.90;;;;;;4941081;28;20037;-91
2023/12/21 01:54:50;;;;;;;52.85;27.48;;;5.60;99.90;;;;;;4941777;28;20030;-89
2023/12/21 01:57:16;;;;;;;50.65;26.65;;;5.50;99.90;;;;;;4941811;28;20027;-89
2023/12/21 01:59:43;;;;;;;47.13;26.27;;;5.50;99.90;;;;;;4941785;28;20027;-90
2023/12/21 02:02:09;;;;;;;53.45;27.80;;;5.50;99.90;;;;;;4941312;28;20038;-89
2023/12/21 02:04:36;;;;;;;50.90;28.92;;;5.40;99.90;;;;;;4945165;28;20089;-89
2023/12/21 02:07:02;;;;;;;52.78;28.25;;;5.30;99.90;;;;;;4945859;28;20038;-90
2023/12/21 02:09:28;;;;;;;58.63;31.00;;;5.20;99.90;;;;;;4941254;29;20062;-90
2023/12/21 02:11:55;;;;;;;68.72;34.60;;;5.20;99.90;;;;;;4939933;28;20031;-89
2023/12/21 02:14:21;;;;;;;65.47;34.25;;;5.10;99.90;;;;;;4941714;29;20054;-89
2023/12/21 02:17:04;;;;;;;59.05;32.53;;;5.10;99.90;;;;;;4940279;28;20031;-88
2023/12/21 02:19:31;;;;;;;70.07;33.25;;;5.10;99.90;;;;;;4957751;28;20042;-90
2023/12/21 02:22:01;;;;;;;61.45;32.05;;;5.10;99.90;;;;;;4941567;29;20023;-90
2023/12/21 02:24:27;;;;;;;60.38;32.40;;;5.10;99.90;;;;;;4933490;29;20029;-90
2023/12/21 02:26:54;;;;;;;70.55;33.33;;;5.10;99.90;;;;;;4955726;28;20030;-89
2023/12/21 02:29:20;;;;;;;61.47;33.03;;;5.10;99.90;;;;;;4946359;28;20019;-89
2023/12/21 02:31:46;;;;;;;61.90;31.45;;;5.10;99.90;;;;;;4941232;29;20023;-89
2023/12/21 02:34:13;;;;;;;66.70;32.22;;;5.00;99.90;;;;;;4956796;28;20047;-89
2023/12/21 02:36:39;;;;;;;67.35;31.77;;;5.00;99.90;;;;;;4943479;28;20130;-90
2023/12/21 02:39:05;;;;;;;63.45;31.17;;;5.00;99.90;;;;;;4944667;28;20038;-89
2023/12/21 02:41:31;;;;;;;56.83;28.73;;;4.90;99.90;;;;;;4944276;28;20037;-89
2023/12/21 02:43:58;;;;;;;54.45;28.88;;;4.80;99.90;;;;;;4944678;28;20043;-90
2023/12/21 02:46:26;;;;;;;56.83;29.20;;;4.80;99.90;;;;;;4956572;29;20058;-88
2023/12/21 02:48:53;;;;;;;54.78;28.70;;;4.80;99.90;;;;;;4941514;29;20063;-89
2023/12/21 02:51:19;;;;;;;52.15;29.27;;;4.80;99.90;;;;;;4925403;29;20118;-88
2023/12/21 02:53:45;;;;;;;54.78;29.40;;;4.80;99.90;;;;;;4934398;28;20048;-89
2023/12/21 02:56:11;;;;;;;48.72;26.75;;;4.90;99.90;;;;;;4944081;28;20511;-89
2023/12/21 02:58:40;;;;;;;55.47;29.85;;;4.80;99.90;;;;;;4960269;28;20070;-90
2023/12/21 03:01:06;;;;;;;58.35;29.13;;;4.90;99.90;;;;;;4956990;29;20030;-90
2023/12/21 03:03:32;;;;;;;55.65;29.42;;;4.90;99.90;;;;;;4934475;28;20023;-90
2023/12/21 03:05:58;;;;;;;49.75;28.48;;;4.90;99.90;;;;;;4943860;28;20122;-90
2023/12/21 03:08:25;;;;;;;52.97;29.63;;;5.00;99.90;;;;;;4940171;29;20050;-89
2023/12/21 03:10:51;;;;;;;55.40;30.60;;;5.10;99.90;;;;;;4940229;28;20488;-90
2023/12/21 03:13:17;;;;;;;53.67;29.17;;;5.10;99.90;;;;;;4943604;28;20077;-89
2023/12/21 03:15:43;;;;;;;54.38;29.38;;;5.20;99.90;;;;;;4943288;28;20027;-89
2023/12/21 03:18:12;;;;;;;57.75;31.70;;;5.20;99.90;;;;;;4940405;29;20488;-91
2023/12/21 03:20:38;;;;;;;56.58;29.35;;;5.30;99.90;;;;;;4925059;29;20023;-91
2023/12/21 03:23:05;;;;;;;54.47;30.00;;;5.30;99.90;;;;;;4926033;29;20027;-89
2023/12/21 03:25:31;;;;;;;54.58;30.10;;;5.30;99.90;;;;;;4948074;28;20033;-90
2023/12/21 03:27:59;;;;;;;52.22;30.10;;;5.30;99.90;;;;;;4959216;28;20048;-90
2023/12/21 03:30:25;;;;;;;57.72;29.75;;;5.30;99.90;;;;;;4959334;28;20027;-89
2023/12/21 03:32:52;;;;;;;54.05;27.67;;;5.30;99.90;;;;;;4956090;29;20047;-89
2023/12/21 03:35:18;;;;;;;51.97;27.83;;;5.40;99.90;;;;;;4935096;28;20039;-90
2023/12/21 03:37:45;;;;;;;49.42;26.23;;;5.40;99.90;;;;;;4943108;28;20035;-89
2023/12/21 03:40:12;;;;;;;48.80;26.42;;;5.40;99.90;;;;;;4943492;28;20032;-89
2023/12/21 03:42:38;;;;;;;48.00;26.30;;;5.40;99.90;;;;;;4958719;28;20746;-90
2023/12/21 03:45:05;;;;;;;44.75;26.00;;;5.50;99.90;;;;;;4940070;29;20039;-90
2023/12/21 03:47:31;;;;;;;49.78;25.55;;;5.40;99.90;;;;;;4933697;28;20116;-89
2023/12/21 03:49:57;;;;;;;50.17;25.60;;;5.40;99.90;;;;;;4943230;28;20097;-89
2023/12/21 03:52:24;;;;;;;50.97;24.90;;;5.40;99.90;;;;;;4939982;29;20030;-90
2023/12/21 03:54:50;;;;;;;46.60;25.17;;;5.50;99.90;;;;;;4943151;28;20035;-89
2023/12/21 03:57:16;;;;;;;47.38;25.38;;;5.50;99.90;;;;;;4954481;28;20113;-89
2023/12/21 03:59:43;;;;;;;46.67;24.88;;;5.60;99.90;;;;;;4939547;29;20031;-89
2023/12/21 04:02:09;;;;;;;49.05;25.60;;;5.60;99.90;;;;;;4935464;29;20059;-89
2023/12/21 04:04:36;;;;;;;59.03;26.70;;;5.60;99.90;;;;;;4933888;29;20039;-89
2023/12/21 04:07:03;;;;;;;54.03;25.98;;;5.70;99.90;;;;;;4948032;29;20511;-89
2023/12/21 04:09:29;;;;;;;53.00;25.48;;;5.60;99.90;;;;;;4948524;28;20019;-90
2023/12/21 04:11:55;;;;;;;47.75;26.00;;;5.60;99.90;;;;;;4943172;28;20034;-88
2023/12/21 04:14:21;;;;;;;51.90;25.45;;;5.60;99.90;;;;;;4942757;28;20046;-90
2023/12/21 04:16:48;;;;;;;54.97;25.58;;;5.60;99.90;;;;;;4945384;29;20038;-89
2023/12/21 04:19:14;;;;;;;47.53;25.63;;;5.60;99.90;;;;;;4958353;28;20031;-89
2023/12/21 04:21:43;;;;;;;49.60;25.48;;;5.60;99.90;;;;;;4942682;28;20035;-90
2023/12/21 04:24:10;;;;;;;49.38;25.33;;;5.50;99.90;;;;;;4942490;28;20035;-90
2023/12/21 04:26:36;;;;;;;45.70;24.95;;;5.50;99.90;;;;;;4941603;28;20031;-89
2023/12/21 04:29:02;;;;;;;39.53;22.50;;;5.40;99.90;;;;;;4942800;28;20027;-90
2023/12/21 04:31:29;;;;;;;41.58;22.85;;;5.40;99.90;;;;;;4947799;29;20027;-90
2023/12/21 04:33:55;;;;;;;35.55;20.95;;;5.40;99.90;;;;;;4931301;29;20039;-89
2023/12/21 04:36:21;;;;;;;41.65;21.73;;;5.40;99.90;;;;;;4929689;29;20476;-89
2023/12/21 04:38:47;;;;;;;40.60;21.13;;;5.50;99.90;;;;;;4934519;28;20027;-89
2023/12/21 04:41:14;;;;;;;43.33;20.92;;;5.50;99.90;;;;;;4958381;28;20384;-90
2023/12/21 04:43:40;;;;;;;39.70;20.20;;;5.40;99.90;;;;;;4932902;29;20051;-86
2023/12/21 04:46:06;;;;;;;41.13;20.42;;;5.50;99.90;;;;;;4921870;29;20028;-88
2023/12/21 04:48:33;;;;;;;39.63;19.35;;;5.50;99.90;;;;;;4901363;29;20062;-91
2023/12/21 04:51:02;;;;;;;33.92;19.05;;;5.40;99.90;;;;;;4907774;29;20032;-89
2023/12/21 04:53:28;;;;;;;40.65;20.05;;;5.40;99.90;;;;;;4920111;29;20661;-90
2023/12/21 04:55:55;;;;;;;38.05;20.20;;;5.40;99.90;;;;;;4916704;29;20442;-89
2023/12/21 04:58:21;;;;;;;40.80;19.80;;;5.50;99.90;;;;;;4922396;29;20028;-91
2023/12/21 05:00:50;;;;;;;37.72;19.52;;;5.40;99.90;;;;;;4935468;29;20032;-88
2023/12/21 05:03:20;;;;;;;40.72;21.60;;;5.40;99.90;;;;;;4927522;29;20024;-89
2023/12/21 05:05:46;;;;;;;34.63;20.90;;;5.40;99.90;;;;;;4919992;29;20036;-88
2023/12/21 05:08:13;;;;;;;35.25;20.10;;;5.40;99.90;;;;;;4916595;29;20051;-89
2023/12/21 05:10:40;;;;;;;36.90;20.73;;;5.50;99.90;;;;;;4901136;29;20095;-89
2023/12/21 05:13:09;;;;;;;39.80;21.98;;;5.60;99.90;;;;;;4903270;29;20036;-89
2023/12/21 05:15:36;;;;;;;44.05;22.33;;;5.60;99.90;;;;;;4919833;29;20124;-88
2023/12/21 05:18:02;;;;;;;48.75;22.75;;;5.80;99.90;;;;;;4919940;29;20036;-88
2023/12/21 05:20:29;;;;;;;48.78;24.15;;;5.80;99.90;;;;;;4920078;29;20497;-88
2023/12/21 05:22:55;;;;;;;51.25;24.38;;;5.70;99.90;;;;;;4919845;29;20023;-88
2023/12/21 05:25:21;;;;;;;49.15;23.70;;;5.60;99.90;;;;;;4919920;29;20043;-90
2023/12/21 05:27:48;;;;;;;48.58;23.15;;;5.60;99.90;;;;;;4919999;29;20020;-88
2023/12/21 05:30:20;;;;;;;46.63;23.55;;;5.50;99.90;;;;;;4917313;29;20512;-88
2023/12/21 05:32:47;;;;;;;45.58;24.05;;;5.60;99.90;;;;;;4950221;29;20034;-89
2023/12/21 05:35:14;;;;;;;46.45;24.08;;;5.60;99.90;;;;;;4935357;29;20031;-87
2023/12/21 05:37:41;;;;;;;47.85;24.85;;;5.60;99.90;;;;;;4920127;29;20035;-88
2023/12/21 05:40:08;;;;;;;54.08;25.75;;;5.70;99.90;;;;;;4920380;29;20032;-87
2023/12/21 05:42:35;;;;;;;41.70;23.30;;;5.70;99.90;;;;;;4922378;29;20035;-87
2023/12/21 05:45:01;;;;;;;47.13;24.58;;;5.80;99.90;;;;;;4941253;29;20039;-90
2023/12/21 05:47:28;;;;;;;45.20;24.88;;;5.80;99.90;;;;;;4942244;29;20031;-90
2023/12/21 05:49:54;;;;;;;48.50;24.65;;;5.80;99.90;;;;;;4942406;29;20086;-90
2023/12/21 05:52:20;;;;;;;50.97;25.40;;;5.80;99.90;;;;;;4958536;28;20031;-90
2023/12/21 05:54:49;;;;;;;46.20;25.08;;;5.90;99.90;;;;;;4957945;29;20039;-90
2023/12/21 05:57:16;;;;;;;46.50;24.45;;;5.80;99.90;;;;;;4954709;29;20023;-90
2023/12/21 05:59:43;;;;;;;55.55;26.05;;;5.80;99.90;;;;;;4938765;29;20031;-90
2023/12/21 06:02:09;;;;;;;53.70;25.90;;;5.80;99.90;;;;;;4949655;29;20085;-90
2023/12/21 06:04:36;;;;;;;51.05;25.45;;;5.80;99.90;;;;;;4941541;29;20023;-90
2023/12/21 06:07:02;;;;;;;53.30;27.10;;;5.80;99.90;;;;;;4941754;29;20031;-91
2023/12/21 06:09:29;;;;;;;60.90;27.67;;;5.80;99.90;;;;;;4957265;29;20469;-91
2023/12/21 06:11:55;;;;;;;60.20;27.40;;;5.80;99.90;;;;;;4954190;29;20034;-90
2023/12/21 06:14:21;;;;;;;60.22;28.92;;;5.90;99.90;;;;;;4924005;29;20580;-90
2023/12/21 06:16:50;;;;;;;50.75;26.17;;;5.90;99.90;;;;;;4939148;29;20049;-90
2023/12/21 06:19:16;;;;;;;56.17;26.27;;;6.00;99.90;;;;;;4941288;29;20020;-91
2023/12/21 06:21:42;;;;;;;59.40;27.92;;;6.10;99.90;;;;;;4938606;29;20027;-92
2023/12/21 06:24:09;;;;;;;54.40;25.90;;;6.00;99.90;;;;;;4923199;29;20051;-89
2023/12/21 06:26:42;;;;;;;58.92;26.33;;;6.10;99.90;;;;;;4940502;29;20103;-90
2023/12/21 06:29:09;;;;;;;51.28;26.30;;;6.10;99.90;;;;;;4942096;29;20031;-90
2023/12/21 06:31:36;;;;;;;57.40;27.33;;;6.10;99.90;;;;;;4941517;29;20028;-90
2023/12/21 06:34:02;;;;;;;51.15;26.10;;;6.10;99.90;;;;;;4941457;29;20046;-91
2023/12/21 06:36:29;;;;;;;52.15;26.13;;;6.10;99.90;;;;;;4942085;29;20031;-86
2023/12/21 06:38:55;;;;;;;46.30;26.00;;;6.20;99.90;;;;;;4929590;29;20027;-91
2023/12/21 06:41:21;;;;;;;53.85;27.05;;;6.30;99.90;;;;;;4950681;29;20028;-91
2023/12/21 06:43:47;;;;;;;49.65;26.63;;;6.50;99.90;;;;;;4941666;29;20043;-91
2023/12/21 06:46:16;;;;;;;45.60;24.08;;;6.70;99.90;;;;;;4925529;29;20028;-91
2023/12/21 06:48:45;;;;;;;43.50;23.10;;;6.90;99.90;;;;;;4940559;28;20035;-91
2023/12/21 06:51:13;;;;;;;41.20;22.13;;;7.30;99.90;;;;;;4949861;28;20035;-90
2023/12/21 06:53:39;;;;;;;44.60;22.73;;;7.50;99.90;;;;;;4937604;29;20048;-90
2023/12/21 06:56:07;;;;;;;34.97;21.48;;;7.70;99.90;;;;;;4921848;29;20024;-89
2023/12/21 06:58:33;;;;;;;35.00;20.65;;;8.00;99.90;;;;;;4921410;29;20086;-89
2023/12/21 07:00:59;;;;;;;35.92;21.38;;;8.40;99.90;;;;;;4921546;29;20106;-91
2023/12/21 07:03:26;;;;;;;38.17;21.63;;;8.50;99.90;;;;;;4921261;29;20046;-88
2023/12/21 07:05:52;;;;;;;36.28;21.33;;;8.50;99.90;;;;;;4930419;29;20170;-87
2023/12/21 07:08:19;;;;;;;35.42;23.35;;;8.60;99.90;;;;;;4947769;28;20201;-87
2023/12/21 07:10:45;;;;;;;36.33;23.48;;;8.50;99.90;;;;;;4959093;28;20383;-85
2023/12/21 07:13:11;;;;;;;35.42;23.75;;;8.50;99.90;;;;;;4959093;28;20035;-87
2023/12/21 07:15:38;;;;;;;37.78;26.25;;;8.40;99.90;;;;;;4959339;28;20081;-88
2023/12/21 07:18:04;;;;;;;44.60;28.83;;;8.40;99.90;;;;;;4958978;28;20050;-88
2023/12/21 07:20:31;;;;;;;41.75;28.08;;;8.40;99.90;;;;;;4956540;29;20042;-87
2023/12/21 07:23:00;;;;;;;47.47;30.02;;;8.50;99.90;;;;;;4940700;29;20035;-86
2023/12/21 07:25:27;;;;;;;47.50;30.67;;;8.50;99.90;;;;;;4940609;29;20023;-85
2023/12/21 07:27:54;;;;;;;47.55;30.02;;;8.30;99.90;;;;;;4943500;28;20026;-87
2023/12/21 07:30:20;;;;;;;50.83;29.83;;;8.20;99.90;;;;;;4943484;28;20062;-84
2023/12/21 07:32:47;;;;;;;51.35;30.23;;;8.20;99.90;;;;;;4943553;28;20034;-84
2023/12/21 07:35:13;;;;;;;50.95;32.00;;;8.10;99.90;;;;;;4940378;29;20477;-85
2023/12/21 07:37:41;;;;;;;59.65;32.78;;;8.10;99.90;;;;;;4924331;29;20039;-86
2023/12/21 07:40:10;;;;;;;61.55;34.80;;;8.10;99.90;;;;;;4927987;28;20019;-84
2023/12/21 07:42:38;;;;;;;53.53;33.03;;;8.00;99.90;;;;;;4924033;29;20047;-84
2023/12/21 07:45:05;;;;;;;54.67;33.72;;;8.00;99.90;;;;;;4927919;29;20031;-85
2023/12/21 07:47:31;;;;;;;53.53;33.25;;;8.00;99.90;;;;;;4939897;29;20115;-86
2023/12/21 07:49:58;;;;;;;58.97;34.53;;;8.00;99.90;;;;;;4939956;29;20031;-86
2023/12/21 07:52:25;;;;;;;64.07;34.50;;;8.10;99.90;;;;;;4939879;29;20028;-87
2023/12/21 07:54:51;;;;;;;64.10;34.55;;;8.20;99.90;;;;;;4943362;28;20047;-86
2023/12/21 07:57:17;;;;;;;53.60;33.38;;;8.20;99.90;;;;;;4959105;28;20118;-86
2023/12/21 07:59:44;;;;;;;51.95;33.47;;;8.30;99.90;;;;;;4940081;29;20023;-86
2023/12/21 08:02:11;;;;;;;60.08;34.83;;;8.40;99.90;;;;;;4939486;29;20027;-86
2023/12/21 08:04:37;;;;;;;55.45;33.72;;;8.50;99.90;;;;;;4923882;29;20142;-85
2023/12/21 08:07:04;;;;;;;61.42;34.88;;;8.60;99.90;;;;;;4939680;29;20030;-85
2023/12/21 08:09:30;;;;;;;57.03;34.20;;;8.70;99.90;;;;;;4923676;29;20445;-86
2023/12/21 08:11:56;;;;;;;56.95;34.55;;;8.80;99.90;;;;;;4935240;28;20041;-84
2023/12/21 08:14:26;;;;;;;60.53;35.63;;;8.90;99.90;;;;;;4932367;29;20147;-85
2023/12/21 08:16:53;;;;;;;54.63;33.00;;;9.20;99.90;;;;;;4923457;29;20027;-86
2023/12/21 08:19:19;;;;;;;60.55;34.60;;;9.40;99.90;;;;;;4924342;29;20031;-86
2023/12/21 08:21:46;;;;;;;59.53;34.28;;;9.50;99.90;;;;;;4923855;29;20031;-86
2023/12/21 08:24:12;;;;;;;51.95;32.78;;;9.60;99.90;;;;;;4937175;29;20035;-87
2023/12/21 08:26:39;;;;;;;53.80;32.85;;;9.80;99.90;;;;;;4941648;29;20027;-86
2023/12/21 08:29:05;;;;;;;58.53;32.88;;;10.00;99.90;;;;;;4940213;29;20098;-87
2023/12/21 08:31:31;;;;;;;52.47;33.58;;;10.20;99.90;;;;;;4939306;29;20534;-87
2023/12/21 08:33:59;;;;;;;54.75;32.72;;;10.20;99.90;;;;;;4949350;29;20050;-88
2023/12/21 08:36:27;;;;;;;59.03;34.63;;;10.20;99.90;;;;;;4955317;28;20031;-87
2023/12/21 08:38:54;;;;;;;54.40;35.35;;;10.40;99.90;;;;;;4923585;29;20027;-87
2023/12/21 08:41:24;;;;;;;53.83;34.78;;;10.60;99.90;;;;;;4954883;28;20035;-85
2023/12/21 08:43:51;;;;;;;57.13;35.72;;;10.80;99.90;;;;;;4939006;29;20118;-86
2023/12/21 08:46:19;;;;;;;54.80;34.08;;;10.90;99.90;;;;;;4939310;29;20031;-86
2023/12/21 08:48:45;;;;;;;48.97;32.08;;;11.10;99.90;;;;;;4939163;29;20090;-86
2023/12/21 08:51:13;;;;;;;53.00;34.40;;;11.50;99.90;;;;;;4923293;29;20134;-87
2023/12/21 08:53:40;;;;;;;50.30;35.28;;;11.80;99.90;;;;;;4947425;28;20070;-88
2023/12/21 08:56:07;;;;;;;55.90;36.35;;;11.80;99.90;;;;;;4942246;28;20031;-87
2023/12/21 08:58:35;;;;;;;52.72;35.38;;;12.10;99.90;;;;;;4942201;28;20094;-87
2023/12/21 09:01:04;;;;;;;52.30;36.47;;;12.40;99.90;;;;;;4942301;28;20031;-87
2023/12/21 09:03:30;;;;;;;56.35;36.70;;;12.40;99.90;;;;;;4944223;28;20019;-83
2023/12/21 09:05:57;;;;;;;56.30;36.45;;;12.50;99.90;;;;;;4941071;28;20038;-81
2023/12/21 09:08:24;;;;;;;59.28;36.50;;;12.60;99.90;;;;;;4953710;29;20031;-81
2023/12/21 09:10:51;;;;;;;54.25;38.13;;;12.60;99.90;;;;;;4937884;29;20034;-81
2023/12/21 09:13:18;;;;;;;63.33;36.40;;;12.50;99.90;;;;;;4942308;28;20035;-81
2023/12/21 09:15:46;;;;;;;50.67;35.92;;;12.40;99.90;;;;;;4960990;28;20558;-80
2023/12/21 09:18:13;;;;;;;56.25;36.88;;;12.40;99.90;;;;;;4960957;28;20031;-82
2023/12/21 09:20:39;;;;;;;53.63;36.45;;;12.40;99.90;;;;;;4961509;28;20038;-81
2023/12/21 09:23:06;;;;;;;55.90;35.90;;;12.40;99.90;;;;;;4942352;29;20023;-83
2023/12/21 09:25:33;;;;;;;54.10;37.72;;;12.60;99.90;;;;;;4942017;29;20027;-83
2023/12/21 09:28:02;;;;;;;52.17;35.30;;;12.60;99.90;;;;;;4958968;28;20082;-83
2023/12/21 09:30:30;;;;;;;54.70;36.17;;;12.70;99.90;;;;;;4945623;28;20027;-86
2023/12/21 09:33:00;;;;;;;51.00;36.38;;;12.90;99.90;;;;;;4945321;28;20103;-85
2023/12/21 09:35:27;;;;;;;47.30;33.88;;;13.00;99.90;;;;;;4945835;28;20034;-84
2023/12/21 09:37:53;;;;;;;49.20;34.20;;;13.10;99.90;;;;;;4961237;28;20030;-84
2023/12/21 09:40:20;;;;;;;49.97;35.28;;;13.30;99.90;;;;;;4945321;28;20039;-84
2023/12/21 09:42:51;;;;;;;48.10;33.17;;;13.40;99.90;;;;;;4938897;29;20453;-85
2023/12/21 09:45:19;;;;;;;47.58;33.00;;;13.50;99.90;;;;;;4957383;29;20058;-85
2023/12/21 09:47:45;;;;;;;43.92;31.73;;;13.70;99.90;;;;;;4948874;29;20031;-85
2023/12/21 09:50:13;;;;;;;46.67;31.95;;;13.90;99.90;;;;;;4938964;29;20046;-87
2023/12/21 09:52:40;;;;;;;43.75;32.92;;;13.90;99.90;;;;;;4933269;29;20034;-87
2023/12/21 09:55:09;;;;;;;42.45;31.40;;;14.00;99.90;;;;;;4938852;29;20119;-87
2023/12/21 09:57:37;;;;;;;43.97;32.42;;;13.90;99.90;;;;;;4938937;29;20034;-86
2023/12/21 10:00:04;;;;;;;52.97;36.90;;;14.00;99.90;;;;;;4939796;29;20028;-86
2023/12/21 10:02:38;;;;;;;38.72;31.17;;;14.00;99.90;;;;;;4972975;28;20027;-85
2023/12/21 10:05:04;;;;;;;38.97;29.42;;;14.00;99.90;;;;;;4938725;29;20107;-86
2023/12/21 10:07:31;;;;;;;39.67;30.20;;;13.90;99.90;;;;;;4922882;29;20028;-88
2023/12/21 10:09:58;;;;;;;39.30;30.38;;;13.90;99.90;;;;;;4922983;29;20079;-88
2023/12/21 10:12:24;;;;;;;41.42;28.92;;;14.00;99.90;;;;;;4930263;29;20126;-84
2023/12/21 10:15:03;;;;;;;37.08;29.00;;;14.10;99.90;;;;;;4957716;29;20042;-88
2023/12/21 10:17:32;;;;;;;37.90;28.95;;;14.00;99.90;;;;;;4942358;29;20122;-88
2023/12/21 10:20:00;;;;;;;32.65;27.60;;;14.10;99.90;;;;;;4938921;29;20110;-88
2023/12/21 10:22:26;;;;;;;35.33;27.48;;;14.20;99.90;;;;;;4922881;29;20036;-89
2023/12/21 10:24:54;;;;;;;33.88;26.85;;;14.10;99.90;;;;;;4923917;29;20024;-88
2023/12/21 10:27:22;;;;;;;32.70;26.20;;;14.10;99.90;;;;;;4941552;29;20122;-88
2023/12/21 10:29:55;;;;;;;34.45;27.10;;;14.10;99.90;;;;;;4941670;29;20110;-89
2023/12/21 10:32:25;;;;;;;34.58;26.85;;;14.00;99.90;;;;;;4941686;29;20042;-86
2023/12/21 10:34:58;;;;;;;34.03;26.40;;;14.10;99.90;;;;;;4941399;29;20048;-88
2023/12/21 10:37:24;;;;;;;35.00;26.73;;;14.20;99.90;;;;;;4938072;29;20442;-87
2023/12/21 10:39:52;;;;;;;33.65;26.63;;;14.30;99.90;;;;;;4922665;29;20479;-90
2023/12/21 10:42:22;;;;;;;30.27;26.35;;;14.40;99.90;;;;;;4922154;29;20111;-90
2023/12/21 10:44:48;;;;;;;31.77;26.08;;;14.60;99.90;;;;;;4922281;29;20043;-90
2023/12/21 10:47:19;;;;;;;33.95;26.98;;;14.60;99.90;;;;;;4922664;29;20027;-90
2023/12/21 10:49:47;;;;;;;34.22;25.90;;;14.40;99.90;;;;;;4922772;29;20103;-90
2023/12/21 10:52:15;;;;;;;35.00;25.40;;;14.50;99.90;;;;;;4922818;29;20027;-90
2023/12/21 10:54:42;;;;;;;26.63;23.85;;;14.70;99.90;;;;;;4922352;29;20047;-88
2023/12/21 10:57:13;;;;;;;30.10;24.92;;;14.60;99.90;;;;;;4922883;29;20087;-89
2023/12/21 10:59:43;;;;;;;32.40;25.45;;;14.60;99.90;;;;;;4922094;29;20572;-89
2023/12/21 11:02:13;;;;;;;33.10;25.75;;;14.70;99.90;;;;;;4927886;29;20122;-89
2023/12/21 11:04:42;;;;;;;31.50;26.35;;;14.80;99.90;;;;;;4937938;29;20031;-89
2023/12/21 11:07:12;;;;;;;36.83;28.40;;;14.90;99.90;;;;;;4921928;29;20062;-89
2023/12/21 11:09:42;;;;;;;32.70;26.77;;;14.90;99.90;;;;;;4921851;29;20031;-90
2023/12/21 11:12:09;;;;;;;35.15;26.75;;;15.10;99.90;;;;;;4937629;29;20032;-89
2023/12/21 11:14:36;;;;;;;31.30;26.35;;;15.20;99.90;;;;;;4937591;29;20130;-89
2023/12/21 11:17:05;;;;;;;31.00;25.40;;;15.30;99.90;;;;;;4922148;29;20032;-89
2023/12/21 11:19:36;;;;;;;28.67;24.92;;;15.50;99.90;;;;;;4921767;29;20035;-90
2023/12/21 11:22:04;;;;;;;33.28;26.23;;;15.30;99.90;;;;;;4937639;29;20031;-89
2023/12/21 11:24:31;;;;;;;29.10;25.98;;;14.90;99.90;;;;;;4921618;29;20071;-89
2023/12/21 11:26:59;;;;;;;32.38;24.92;;;14.50;99.90;;;;;;4937228;29;20032;-89
2023/12/21 11:29:28;;;;;;;31.52;24.35;;;14.20;99.90;;;;;;4922445;29;20031;-89
2023/12/21 11:31:56;;;;;;;40.70;25.40;;;14.10;99.90;;;;;;4922170;29;20063;-89
2023/12/21 11:34:41;;;;;;;25.08;22.40;;;14.20;99.90;;;;;;4922158;29;20103;-89
2023/12/21 11:37:23;;;;;;;25.23;22.45;;;14.30;99.90;;;;;;4922283;29;20485;-89
2023/12/21 11:40:04;;;;;;;24.08;21.48;;;14.60;99.90;;;;;;4937966;29;20042;-90
2023/12/21 11:42:38;;;;;;;27.92;21.77;;;14.80;99.90;;;;;;4938201;29;20055;-88
2023/12/21 11:45:12;;;;;;;27.80;21.50;;;14.80;99.90;;;;;;4923704;29;20039;-89
2023/12/21 11:47:38;;;;;;;24.77;22.08;;;15.00;99.90;;;;;;4946072;29;20023;-89
2023/12/21 11:50:09;;;;;;;27.95;23.23;;;15.10;99.90;;;;;;4959774;29;20030;-89
2023/12/21 11:52:37;;;;;;;27.13;23.08;;;15.30;99.90;;;;;;4938296;29;20436;-89
2023/12/21 11:55:04;;;;;;;24.00;21.58;;;15.40;99.90;;;;;;4924155;29;20040;-89
2023/12/21 11:57:35;;;;;;;23.23;21.02;;;15.30;99.90;;;;;;4925419;29;20035;-89
2023/12/21 12:00:09;;;;;;;23.05;20.80;;;15.10;99.90;;;;;;4943658;29;20079;-89
2023/12/21 12:02:35;;;;;;;27.27;21.70;;;14.90;99.90;;;;;;4943502;29;20373;-89
2023/12/21 12:05:06;;;;;;;23.50;21.17;;;14.80;99.90;;;;;;4938692;29;20051;-89
2023/12/21 12:07:34;;;;;;;24.60;21.75;;;14.80;99.90;;;;;;4931343;29;20064;-89
2023/12/21 12:10:01;;;;;;;23.90;21.33;;;14.80;99.90;;;;;;4944389;29;20023;-89
2023/12/21 12:12:29;;;;;;;24.05;21.55;;;15.00;99.90;;;;;;4942257;29;20033;-89
2023/12/21 12:15:00;;;;;;;22.33;20.42;;;15.30;99.90;;;;;;4944420;29;20042;-89
2023/12/21 12:17:33;;;;;;;22.73;20.63;;;15.60;99.90;;;;;;4945169;29;20050;-89
2023/12/21 12:20:04;;;;;;;22.17;20.08;;;15.60;99.90;;;;;;4938293;29;20042;-89
2023/12/21 12:22:31;;;;;;;22.40;20.38;;;15.40;99.90;;;;;;4935213;29;20083;-89
2023/12/21 12:24:57;;;;;;;22.77;20.58;;;15.30;99.90;;;;;;4925575;29;20028;-89
2023/12/21 12:27:35;;;;;;;23.95;21.45;;;15.10;99.90;;;;;;4932765;29;20031;-89
2023/12/21 12:30:23;;;;;;;23.30;21.17;;;15.00;99.90;;;;;;4944714;29;20031;-89
2023/12/21 12:32:55;;;;;;;24.77;20.85;;;14.90;99.90;;;;;;4942652;29;20032;-89
2023/12/21 12:35:22;;;;;;;23.17;20.52;;;14.90;99.90;;;;;;4943952;29;20137;-89
2023/12/21 12:37:49;;;;;;;22.70;20.55;;;14.90;99.90;;;;;;4931069;29;20083;-89
2023/12/21 12:40:23;;;;;;;22.65;20.30;;;15.00;99.90;;;;;;4926601;29;20032;-89
2023/12/21 12:42:51;;;;;;;23.95;20.95;;;15.00;99.90;;;;;;4935455;29;20050;-88
2023/12/21 12:45:18;;;;;;;22.52;20.38;;;15.00;99.90;;;;;;4954773;29;20043;-88
2023/12/21 12:47:45;;;;;;;21.15;19.33;;;14.80;99.90;;;;;;4937699;29;20035;-88
2023/12/21 12:50:12;;;;;;;22.38;20.40;;;14.80;99.90;;;;;;4937186;29;20039;-89
2023/12/21 12:52:42;;;;;;;24.20;20.40;;;14.80;99.90;;;;;;4936618;29;20032;-89
2023/12/21 12:55:18;;;;;;;23.92;20.73;;;14.80;99.90;;;;;;4940746;29;20042;-86
2023/12/21 12:57:49;;;;;;;22.02;19.90;;;14.80;99.90;;;;;;4936627;29;20505;-88
2023/12/21 13:00:54;;;;;;;22.27;20.05;;;14.80;99.90;;;;;;4920223;29;20114;-89
2023/12/21 13:03:49;;;;;;;22.48;20.30;;;14.80;99.90;;;;;;4939914;29;20378;-86
2023/12/21 13:06:24;;;;;;;22.00;19.88;;;14.80;99.90;;;;;;4941298;29;20028;-85
2023/12/21 13:08:50;;;;;;;21.42;19.35;;;14.90;99.90;;;;;;4938189;29;20105;-82
2023/12/21 13:11:20;;;;;;;20.48;18.85;;;14.90;99.90;;;;;;4938400;29;20026;-87
2023/12/21 13:13:47;;;;;;;20.52;18.58;;;14.80;99.90;;;;;;4937860;29;20067;-84
2023/12/21 13:16:24;;;;;;;20.20;18.58;;;14.70;99.90;;;;;;4933941;29;20028;-91